sensor_id;sensor_type;location;lat;lon;timestamp;P1;durP1;ratioP1;P2;durP2;ratioP2
8482;SDS011;4278;42.668;23.312;2023-06-14T00:02:21;8.32;;;5.90;;
8482;SDS011;4278;42.668;23.312;2023-06-14T00:04:48;8.38;;;5.65;;
8482;SDS011;4278;42.668;23.312;2023-06-14T00:07:16;9.63;;;5.30;;
8482;SDS011;4278;42.668;23.312;2023-06-14T00:09:43;5.68;;;4.55;;
8482;SDS011;4278;42.668;23.312;2023-06-14T00:12:10;6.30;;;4.90;;
8482;SDS011;4278;42.668;23.312;2023-06-14T00:14:38;6.80;;;5.03;;
8482;SDS011;4278;42.668;23.312;2023-06-14T00:17:05;6.63;;;5.20;;
8482;SDS011;4278;42.668;23.312;2023-06-14T00:19:32;6.07;;;4.72;;
8482;SDS011;4278;42.668;23.312;2023-06-14T00:22:00;8.68;;;5.47;;
8482;SDS011;4278;42.668;23.312;2023-06-14T00:24:28;7.30;;;5.35;;
8482;SDS011;4278;42.668;23.312;2023-06-14T00:26:55;6.15;;;4.93;;
8482;SDS011;4278;42.668;23.312;2023-06-14T00:29:21;8.02;;;4.93;;
8482;SDS011;4278;42.668;23.312;2023-06-14T00:31:49;10.50;;;5.30;;
8482;SDS011;4278;42.668;23.312;2023-06-14T00:34:16;6.10;;;5.10;;
8482;SDS011;4278;42.668;23.312;2023-06-14T00:36:43;7.63;;;4.97;;
8482;SDS011;4278;42.668;23.312;2023-06-14T00:39:10;6.88;;;5.28;;
8482;SDS011;4278;42.668;23.312;2023-06-14T00:41:37;6.50;;;4.65;;
8482;SDS011;4278;42.668;23.312;2023-06-14T00:44:04;8.27;;;5.20;;
8482;SDS011;4278;42.668;23.312;2023-06-14T00:46:31;12.07;;;5.65;;
8482;SDS011;4278;42.668;23.312;2023-06-14T00:48:59;8.40;;;5.10;;
8482;SDS011;4278;42.668;23.312;2023-06-14T00:51:27;6.93;;;4.70;;
8482;SDS011;4278;42.668;23.312;2023-06-14T00:53:54;7.45;;;4.57;;
8482;SDS011;4278;42.668;23.312;2023-06-14T00:56:21;6.63;;;4.97;;
8482;SDS011;4278;42.668;23.312;2023-06-14T00:58:48;7.65;;;5.15;;
8482;SDS011;4278;42.668;23.312;2023-06-14T01:01:16;6.55;;;4.65;;
8482;SDS011;4278;42.668;23.312;2023-06-14T01:03:43;6.47;;;4.28;;
8482;SDS011;4278;42.668;23.312;2023-06-14T01:06:14;6.95;;;4.90;;
8482;SDS011;4278;42.668;23.312;2023-06-14T01:09:01;5.32;;;4.30;;
8482;SDS011;4278;42.668;23.312;2023-06-14T01:11:37;8.75;;;4.05;;
8482;SDS011;4278;42.668;23.312;2023-06-14T01:14:11;7.88;;;4.60;;
8482;SDS011;4278;42.668;23.312;2023-06-14T01:16:39;8.77;;;4.93;;
8482;SDS011;4278;42.668;23.312;2023-06-14T01:19:06;5.85;;;4.85;;
8482;SDS011;4278;42.668;23.312;2023-06-14T01:21:40;5.32;;;4.32;;
8482;SDS011;4278;42.668;23.312;2023-06-14T01:24:09;6.85;;;4.90;;
8482;SDS011;4278;42.668;23.312;2023-06-14T01:26:37;5.88;;;4.40;;
8482;SDS011;4278;42.668;23.312;2023-06-14T01:29:10;5.82;;;4.25;;
8482;SDS011;4278;42.668;23.312;2023-06-14T01:31:42;6.10;;;4.50;;
8482;SDS011;4278;42.668;23.312;2023-06-14T01:34:10;4.70;;;4.00;;
8482;SDS011;4278;42.668;23.312;2023-06-14T01:36:37;9.02;;;4.43;;
8482;SDS011;4278;42.668;23.312;2023-06-14T01:39:07;8.43;;;4.28;;
8482;SDS011;4278;42.668;23.312;2023-06-14T01:41:36;8.80;;;4.85;;
8482;SDS011;4278;42.668;23.312;2023-06-14T01:44:03;7.68;;;4.65;;
8482;SDS011;4278;42.668;23.312;2023-06-14T01:46:31;5.47;;;4.40;;
8482;SDS011;4278;42.668;23.312;2023-06-14T01:48:58;6.20;;;4.53;;
8482;SDS011;4278;42.668;23.312;2023-06-14T01:51:25;11.10;;;4.78;;
8482;SDS011;4278;42.668;23.312;2023-06-14T01:53:52;4.88;;;4.15;;
8482;SDS011;4278;42.668;23.312;2023-06-14T01:56:20;6.50;;;4.95;;
8482;SDS011;4278;42.668;23.312;2023-06-14T01:58:47;7.75;;;4.55;;
8482;SDS011;4278;42.668;23.312;2023-06-14T02:01:15;6.93;;;5.22;;
8482;SDS011;4278;42.668;23.312;2023-06-14T02:03:42;8.95;;;4.70;;
8482;SDS011;4278;42.668;23.312;2023-06-14T02:06:10;9.20;;;4.70;;
8482;SDS011;4278;42.668;23.312;2023-06-14T02:08:37;7.10;;;4.50;;
8482;SDS011;4278;42.668;23.312;2023-06-14T02:11:05;7.22;;;4.80;;
8482;SDS011;4278;42.668;23.312;2023-06-14T02:13:33;7.32;;;4.82;;
8482;SDS011;4278;42.668;23.312;2023-06-14T02:16:00;7.07;;;4.30;;
8482;SDS011;4278;42.668;23.312;2023-06-14T02:18:26;7.88;;;4.78;;
8482;SDS011;4278;42.668;23.312;2023-06-14T02:20:53;7.20;;;4.70;;
8482;SDS011;4278;42.668;23.312;2023-06-14T02:23:20;6.90;;;4.97;;
8482;SDS011;4278;42.668;23.312;2023-06-14T02:25:47;6.25;;;4.45;;
8482;SDS011;4278;42.668;23.312;2023-06-14T02:28:15;7.38;;;4.88;;
8482;SDS011;4278;42.668;23.312;2023-06-14T02:30:43;6.68;;;5.28;;
8482;SDS011;4278;42.668;23.312;2023-06-14T02:33:10;7.20;;;4.88;;
8482;SDS011;4278;42.668;23.312;2023-06-14T02:35:38;9.05;;;5.35;;
8482;SDS011;4278;42.668;23.312;2023-06-14T02:38:05;7.45;;;5.70;;
8482;SDS011;4278;42.668;23.312;2023-06-14T02:40:31;7.93;;;5.60;;
8482;SDS011;4278;42.668;23.312;2023-06-14T02:42:58;7.50;;;4.90;;
8482;SDS011;4278;42.668;23.312;2023-06-14T02:45:25;7.43;;;5.32;;
8482;SDS011;4278;42.668;23.312;2023-06-14T02:47:53;8.73;;;5.40;;
8482;SDS011;4278;42.668;23.312;2023-06-14T02:50:20;9.35;;;5.78;;
8482;SDS011;4278;42.668;23.312;2023-06-14T02:52:49;8.00;;;5.50;;
8482;SDS011;4278;42.668;23.312;2023-06-14T02:55:15;7.22;;;5.10;;
8482;SDS011;4278;42.668;23.312;2023-06-14T02:57:42;7.90;;;5.50;;
8482;SDS011;4278;42.668;23.312;2023-06-14T03:00:09;8.15;;;5.32;;
8482;SDS011;4278;42.668;23.312;2023-06-14T03:02:38;7.18;;;5.40;;
8482;SDS011;4278;42.668;23.312;2023-06-14T03:05:06;5.93;;;4.93;;
8482;SDS011;4278;42.668;23.312;2023-06-14T03:07:34;9.35;;;5.90;;
8482;SDS011;4278;42.668;23.312;2023-06-14T03:10:06;6.43;;;5.43;;
8482;SDS011;4278;42.668;23.312;2023-06-14T03:12:34;6.13;;;4.90;;
8482;SDS011;4278;42.668;23.312;2023-06-14T03:15:02;10.95;;;5.55;;
8482;SDS011;4278;42.668;23.312;2023-06-14T03:17:29;6.05;;;4.80;;
8482;SDS011;4278;42.668;23.312;2023-06-14T03:19:58;9.73;;;5.57;;
8482;SDS011;4278;42.668;23.312;2023-06-14T03:22:27;6.50;;;5.25;;
8482;SDS011;4278;42.668;23.312;2023-06-14T03:24:53;7.65;;;5.30;;
8482;SDS011;4278;42.668;23.312;2023-06-14T03:27:20;7.50;;;5.68;;
8482;SDS011;4278;42.668;23.312;2023-06-14T03:29:47;10.88;;;5.47;;
8482;SDS011;4278;42.668;23.312;2023-06-14T03:32:14;7.88;;;5.78;;
8482;SDS011;4278;42.668;23.312;2023-06-14T03:34:41;8.98;;;6.00;;
8482;SDS011;4278;42.668;23.312;2023-06-14T03:37:10;7.20;;;6.03;;
8482;SDS011;4278;42.668;23.312;2023-06-14T03:39:38;6.93;;;5.30;;
8482;SDS011;4278;42.668;23.312;2023-06-14T03:42:11;8.38;;;5.53;;
8482;SDS011;4278;42.668;23.312;2023-06-14T03:44:38;8.10;;;5.65;;
8482;SDS011;4278;42.668;23.312;2023-06-14T03:47:05;8.57;;;5.00;;
8482;SDS011;4278;42.668;23.312;2023-06-14T03:49:32;7.97;;;5.53;;
8482;SDS011;4278;42.668;23.312;2023-06-14T03:52:00;8.75;;;5.90;;
8482;SDS011;4278;42.668;23.312;2023-06-14T03:54:27;6.95;;;5.03;;
8482;SDS011;4278;42.668;23.312;2023-06-14T03:56:55;9.13;;;5.35;;
8482;SDS011;4278;42.668;23.312;2023-06-14T03:59:22;7.45;;;4.68;;
8482;SDS011;4278;42.668;23.312;2023-06-14T04:01:51;8.25;;;5.82;;
8482;SDS011;4278;42.668;23.312;2023-06-14T04:04:18;8.05;;;5.72;;
8482;SDS011;4278;42.668;23.312;2023-06-14T04:06:46;8.95;;;5.93;;
8482;SDS011;4278;42.668;23.312;2023-06-14T04:09:13;9.50;;;4.80;;
8482;SDS011;4278;42.668;23.312;2023-06-14T04:11:40;7.32;;;5.45;;
8482;SDS011;4278;42.668;23.312;2023-06-14T04:14:08;7.07;;;5.68;;
8482;SDS011;4278;42.668;23.312;2023-06-14T04:16:35;9.80;;;5.70;;
8482;SDS011;4278;42.668;23.312;2023-06-14T04:19:02;6.78;;;4.95;;
8482;SDS011;4278;42.668;23.312;2023-06-14T04:21:28;11.32;;;5.90;;
8482;SDS011;4278;42.668;23.312;2023-06-14T04:23:55;9.48;;;5.15;;
8482;SDS011;4278;42.668;23.312;2023-06-14T04:26:22;9.50;;;6.28;;
8482;SDS011;4278;42.668;23.312;2023-06-14T04:28:54;11.40;;;6.80;;
8482;SDS011;4278;42.668;23.312;2023-06-14T04:31:23;10.45;;;6.38;;
8482;SDS011;4278;42.668;23.312;2023-06-14T04:33:50;12.60;;;7.15;;
8482;SDS011;4278;42.668;23.312;2023-06-14T04:36:18;7.13;;;5.72;;
8482;SDS011;4278;42.668;23.312;2023-06-14T04:38:46;8.35;;;6.45;;
8482;SDS011;4278;42.668;23.312;2023-06-14T04:41:14;7.72;;;6.30;;
8482;SDS011;4278;42.668;23.312;2023-06-14T04:43:41;9.02;;;6.57;;
8482;SDS011;4278;42.668;23.312;2023-06-14T04:46:08;8.27;;;6.50;;
8482;SDS011;4278;42.668;23.312;2023-06-14T04:48:38;8.40;;;5.85;;
8482;SDS011;4278;42.668;23.312;2023-06-14T04:51:06;9.18;;;6.28;;
8482;SDS011;4278;42.668;23.312;2023-06-14T04:53:33;9.43;;;6.32;;
8482;SDS011;4278;42.668;23.312;2023-06-14T04:56:00;10.07;;;6.40;;
8482;SDS011;4278;42.668;23.312;2023-06-14T04:58:28;13.43;;;7.78;;
8482;SDS011;4278;42.668;23.312;2023-06-14T05:00:55;10.32;;;8.13;;
8482;SDS011;4278;42.668;23.312;2023-06-14T05:03:24;13.38;;;9.45;;
8482;SDS011;4278;42.668;23.312;2023-06-14T05:05:53;10.77;;;7.40;;
8482;SDS011;4278;42.668;23.312;2023-06-14T05:08:20;10.07;;;7.00;;
8482;SDS011;4278;42.668;23.312;2023-06-14T05:10:49;8.75;;;6.72;;
8482;SDS011;4278;42.668;23.312;2023-06-14T05:13:16;9.82;;;6.93;;
8482;SDS011;4278;42.668;23.312;2023-06-14T05:15:43;10.15;;;7.22;;
8482;SDS011;4278;42.668;23.312;2023-06-14T05:18:10;10.45;;;7.10;;
8482;SDS011;4278;42.668;23.312;2023-06-14T05:20:38;12.80;;;8.10;;
8482;SDS011;4278;42.668;23.312;2023-06-14T05:23:08;10.55;;;7.20;;
8482;SDS011;4278;42.668;23.312;2023-06-14T05:25:40;13.15;;;8.43;;
8482;SDS011;4278;42.668;23.312;2023-06-14T05:28:08;13.07;;;8.40;;
8482;SDS011;4278;42.668;23.312;2023-06-14T05:30:35;11.32;;;7.35;;
8482;SDS011;4278;42.668;23.312;2023-06-14T05:33:02;12.70;;;8.02;;
8482;SDS011;4278;42.668;23.312;2023-06-14T05:35:29;13.55;;;8.32;;
8482;SDS011;4278;42.668;23.312;2023-06-14T05:37:56;12.88;;;8.90;;
8482;SDS011;4278;42.668;23.312;2023-06-14T05:40:24;12.32;;;8.63;;
8482;SDS011;4278;42.668;23.312;2023-06-14T05:42:51;14.40;;;9.20;;
8482;SDS011;4278;42.668;23.312;2023-06-14T05:45:18;13.23;;;8.43;;
8482;SDS011;4278;42.668;23.312;2023-06-14T05:47:44;11.75;;;8.38;;
8482;SDS011;4278;42.668;23.312;2023-06-14T05:50:11;11.43;;;8.30;;
8482;SDS011;4278;42.668;23.312;2023-06-14T05:52:38;12.52;;;7.72;;
8482;SDS011;4278;42.668;23.312;2023-06-14T05:55:05;12.52;;;7.75;;
8482;SDS011;4278;42.668;23.312;2023-06-14T05:57:33;15.18;;;8.82;;
8482;SDS011;4278;42.668;23.312;2023-06-14T06:00:00;10.90;;;8.68;;
8482;SDS011;4278;42.668;23.312;2023-06-14T06:02:31;13.48;;;8.57;;
8482;SDS011;4278;42.668;23.312;2023-06-14T06:04:58;13.15;;;8.57;;
8482;SDS011;4278;42.668;23.312;2023-06-14T06:07:24;9.57;;;7.32;;
8482;SDS011;4278;42.668;23.312;2023-06-14T06:09:51;10.60;;;8.07;;
8482;SDS011;4278;42.668;23.312;2023-06-14T06:12:18;12.40;;;8.32;;
8482;SDS011;4278;42.668;23.312;2023-06-14T06:14:46;17.95;;;8.82;;
8482;SDS011;4278;42.668;23.312;2023-06-14T06:17:13;14.27;;;8.32;;
8482;SDS011;4278;42.668;23.312;2023-06-14T06:19:40;20.77;;;8.90;;
8482;SDS011;4278;42.668;23.312;2023-06-14T06:22:07;16.85;;;8.77;;
8482;SDS011;4278;42.668;23.312;2023-06-14T06:24:34;12.25;;;8.23;;
8482;SDS011;4278;42.668;23.312;2023-06-14T06:27:01;16.00;;;9.27;;
8482;SDS011;4278;42.668;23.312;2023-06-14T06:29:28;13.40;;;8.00;;
8482;SDS011;4278;42.668;23.312;2023-06-14T06:31:56;12.95;;;8.35;;
8482;SDS011;4278;42.668;23.312;2023-06-14T06:34:23;19.40;;;10.38;;
8482;SDS011;4278;42.668;23.312;2023-06-14T06:36:50;14.43;;;9.52;;
8482;SDS011;4278;42.668;23.312;2023-06-14T06:39:17;16.77;;;9.27;;
8482;SDS011;4278;42.668;23.312;2023-06-14T06:41:44;12.85;;;8.77;;
8482;SDS011;4278;42.668;23.312;2023-06-14T06:44:11;12.82;;;9.43;;
8482;SDS011;4278;42.668;23.312;2023-06-14T06:46:38;13.30;;;9.13;;
8482;SDS011;4278;42.668;23.312;2023-06-14T06:49:07;12.60;;;9.23;;
8482;SDS011;4278;42.668;23.312;2023-06-14T06:51:34;16.55;;;9.40;;
8482;SDS011;4278;42.668;23.312;2023-06-14T06:54:02;13.20;;;8.93;;
8482;SDS011;4278;42.668;23.312;2023-06-14T06:56:28;17.02;;;8.98;;
8482;SDS011;4278;42.668;23.312;2023-06-14T06:58:56;12.88;;;9.68;;
8482;SDS011;4278;42.668;23.312;2023-06-14T07:01:23;18.80;;;11.13;;
8482;SDS011;4278;42.668;23.312;2023-06-14T07:03:51;15.40;;;10.18;;
8482;SDS011;4278;42.668;23.312;2023-06-14T07:06:19;17.73;;;10.27;;
8482;SDS011;4278;42.668;23.312;2023-06-14T07:08:46;14.52;;;9.60;;
8482;SDS011;4278;42.668;23.312;2023-06-14T07:11:13;16.02;;;9.93;;
8482;SDS011;4278;42.668;23.312;2023-06-14T07:13:40;13.38;;;9.43;;
8482;SDS011;4278;42.668;23.312;2023-06-14T07:16:07;19.60;;;10.90;;
8482;SDS011;4278;42.668;23.312;2023-06-14T07:18:33;20.88;;;10.32;;
8482;SDS011;4278;42.668;23.312;2023-06-14T07:21:02;14.15;;;9.35;;
8482;SDS011;4278;42.668;23.312;2023-06-14T07:23:31;19.60;;;10.75;;
8482;SDS011;4278;42.668;23.312;2023-06-14T07:25:57;15.23;;;9.90;;
8482;SDS011;4278;42.668;23.312;2023-06-14T07:28:24;16.27;;;10.07;;
8482;SDS011;4278;42.668;23.312;2023-06-14T07:30:51;12.40;;;9.73;;
8482;SDS011;4278;42.668;23.312;2023-06-14T07:33:18;15.50;;;10.05;;
8482;SDS011;4278;42.668;23.312;2023-06-14T07:35:45;13.73;;;9.30;;
8482;SDS011;4278;42.668;23.312;2023-06-14T07:38:12;16.67;;;9.27;;
8482;SDS011;4278;42.668;23.312;2023-06-14T07:40:41;14.85;;;9.18;;
8482;SDS011;4278;42.668;23.312;2023-06-14T07:43:07;15.23;;;9.32;;
8482;SDS011;4278;42.668;23.312;2023-06-14T07:45:34;16.40;;;9.20;;
8482;SDS011;4278;42.668;23.312;2023-06-14T07:48:01;11.68;;;8.43;;
8482;SDS011;4278;42.668;23.312;2023-06-14T07:50:28;12.70;;;8.77;;
8482;SDS011;4278;42.668;23.312;2023-06-14T07:52:55;12.82;;;8.40;;
8482;SDS011;4278;42.668;23.312;2023-06-14T07:55:22;16.02;;;9.90;;
8482;SDS011;4278;42.668;23.312;2023-06-14T07:57:51;10.90;;;8.32;;
8482;SDS011;4278;42.668;23.312;2023-06-14T08:00:19;14.52;;;8.55;;
8482;SDS011;4278;42.668;23.312;2023-06-14T08:02:46;12.75;;;8.70;;
8482;SDS011;4278;42.668;23.312;2023-06-14T08:05:13;16.38;;;10.40;;
8482;SDS011;4278;42.668;23.312;2023-06-14T08:07:40;14.95;;;10.25;;
8482;SDS011;4278;42.668;23.312;2023-06-14T08:10:07;15.23;;;10.57;;
8482;SDS011;4278;42.668;23.312;2023-06-14T08:12:34;16.17;;;10.30;;
8482;SDS011;4278;42.668;23.312;2023-06-14T08:15:05;12.25;;;8.75;;
8482;SDS011;4278;42.668;23.312;2023-06-14T08:17:32;13.50;;;8.52;;
8482;SDS011;4278;42.668;23.312;2023-06-14T08:19:59;11.57;;;7.80;;
8482;SDS011;4278;42.668;23.312;2023-06-14T08:22:26;12.25;;;8.88;;
8482;SDS011;4278;42.668;23.312;2023-06-14T08:24:56;11.85;;;8.70;;
8482;SDS011;4278;42.668;23.312;2023-06-14T08:27:23;12.80;;;8.38;;
8482;SDS011;4278;42.668;23.312;2023-06-14T08:29:50;16.17;;;9.90;;
8482;SDS011;4278;42.668;23.312;2023-06-14T08:32:19;14.10;;;8.40;;
8482;SDS011;4278;42.668;23.312;2023-06-14T08:34:45;20.58;;;12.20;;
8482;SDS011;4278;42.668;23.312;2023-06-14T08:37:12;16.95;;;12.93;;
8482;SDS011;4278;42.668;23.312;2023-06-14T08:39:39;19.30;;;11.38;;
8482;SDS011;4278;42.668;23.312;2023-06-14T08:42:07;15.90;;;10.63;;
8482;SDS011;4278;42.668;23.312;2023-06-14T08:44:35;12.98;;;9.60;;
8482;SDS011;4278;42.668;23.312;2023-06-14T08:47:02;15.48;;;9.55;;
8482;SDS011;4278;42.668;23.312;2023-06-14T08:49:33;14.18;;;9.60;;
8482;SDS011;4278;42.668;23.312;2023-06-14T08:52:00;19.73;;;13.57;;
8482;SDS011;4278;42.668;23.312;2023-06-14T08:54:27;30.38;;;18.40;;
8482;SDS011;4278;42.668;23.312;2023-06-14T08:56:56;17.05;;;10.10;;
8482;SDS011;4278;42.668;23.312;2023-06-14T08:59:23;14.50;;;9.95;;
8482;SDS011;4278;42.668;23.312;2023-06-14T09:01:52;12.35;;;9.00;;
8482;SDS011;4278;42.668;23.312;2023-06-14T09:04:19;15.32;;;10.18;;
8482;SDS011;4278;42.668;23.312;2023-06-14T09:06:48;14.63;;;11.35;;
8482;SDS011;4278;42.668;23.312;2023-06-14T09:09:18;14.23;;;10.73;;
8482;SDS011;4278;42.668;23.312;2023-06-14T09:11:45;13.52;;;9.48;;
8482;SDS011;4278;42.668;23.312;2023-06-14T09:14:12;12.95;;;9.73;;
8482;SDS011;4278;42.668;23.312;2023-06-14T09:16:40;12.05;;;9.10;;
8482;SDS011;4278;42.668;23.312;2023-06-14T09:19:06;13.73;;;9.05;;
8482;SDS011;4278;42.668;23.312;2023-06-14T09:21:33;13.35;;;8.77;;
8482;SDS011;4278;42.668;23.312;2023-06-14T09:24:02;13.68;;;10.05;;
8482;SDS011;4278;42.668;23.312;2023-06-14T09:26:30;23.63;;;13.93;;
8482;SDS011;4278;42.668;23.312;2023-06-14T09:28:57;10.82;;;8.48;;
8482;SDS011;4278;42.668;23.312;2023-06-14T09:31:25;12.10;;;8.60;;
8482;SDS011;4278;42.668;23.312;2023-06-14T09:33:56;14.52;;;10.70;;
8482;SDS011;4278;42.668;23.312;2023-06-14T09:36:24;20.10;;;12.18;;
8482;SDS011;4278;42.668;23.312;2023-06-14T09:38:52;15.32;;;9.38;;
8482;SDS011;4278;42.668;23.312;2023-06-14T09:41:21;13.55;;;10.00;;
8482;SDS011;4278;42.668;23.312;2023-06-14T09:43:58;11.90;;;9.07;;
8482;SDS011;4278;42.668;23.312;2023-06-14T09:46:27;21.70;;;14.73;;
8482;SDS011;4278;42.668;23.312;2023-06-14T09:48:55;18.27;;;8.60;;
8482;SDS011;4278;42.668;23.312;2023-06-14T09:51:22;12.65;;;7.70;;
8482;SDS011;4278;42.668;23.312;2023-06-14T09:53:49;12.48;;;8.10;;
8482;SDS011;4278;42.668;23.312;2023-06-14T09:56:18;10.85;;;8.18;;
8482;SDS011;4278;42.668;23.312;2023-06-14T09:58:54;14.23;;;10.35;;
8482;SDS011;4278;42.668;23.312;2023-06-14T10:01:22;14.45;;;8.32;;
8482;SDS011;4278;42.668;23.312;2023-06-14T10:03:53;13.68;;;8.18;;
8482;SDS011;4278;42.668;23.312;2023-06-14T10:06:25;10.98;;;8.57;;
8482;SDS011;4278;42.668;23.312;2023-06-14T10:08:59;11.90;;;9.02;;
8482;SDS011;4278;42.668;23.312;2023-06-14T10:11:28;11.38;;;8.32;;
8482;SDS011;4278;42.668;23.312;2023-06-14T10:13:55;11.30;;;8.40;;
8482;SDS011;4278;42.668;23.312;2023-06-14T10:16:24;9.68;;;8.00;;
8482;SDS011;4278;42.668;23.312;2023-06-14T10:19:00;13.57;;;8.00;;
8482;SDS011;4278;42.668;23.312;2023-06-14T10:21:40;9.27;;;8.00;;
8482;SDS011;4278;42.668;23.312;2023-06-14T10:24:10;13.48;;;7.72;;
8482;SDS011;4278;42.668;23.312;2023-06-14T10:26:51;11.18;;;7.70;;
8482;SDS011;4278;42.668;23.312;2023-06-14T10:29:18;11.00;;;7.90;;
8482;SDS011;4278;42.668;23.312;2023-06-14T10:31:46;11.40;;;8.82;;
8482;SDS011;4278;42.668;23.312;2023-06-14T10:34:21;11.20;;;7.93;;
8482;SDS011;4278;42.668;23.312;2023-06-14T10:37:02;11.05;;;8.65;;
8482;SDS011;4278;42.668;23.312;2023-06-14T10:39:30;12.07;;;8.07;;
8482;SDS011;4278;42.668;23.312;2023-06-14T10:42:01;13.43;;;8.73;;
8482;SDS011;4278;42.668;23.312;2023-06-14T10:44:42;11.13;;;7.88;;
8482;SDS011;4278;42.668;23.312;2023-06-14T10:47:13;14.18;;;8.35;;
8482;SDS011;4278;42.668;23.312;2023-06-14T10:49:49;14.27;;;8.52;;
8482;SDS011;4278;42.668;23.312;2023-06-14T10:52:20;9.35;;;7.43;;
8482;SDS011;4278;42.668;23.312;2023-06-14T10:55:01;10.02;;;8.30;;
8482;SDS011;4278;42.668;23.312;2023-06-14T10:57:36;12.15;;;8.43;;
8482;SDS011;4278;42.668;23.312;2023-06-14T11:00:05;12.15;;;8.20;;
8482;SDS011;4278;42.668;23.312;2023-06-14T11:02:46;14.65;;;8.38;;
8482;SDS011;4278;42.668;23.312;2023-06-14T11:05:21;14.35;;;9.07;;
8482;SDS011;4278;42.668;23.312;2023-06-14T11:07:55;10.90;;;8.52;;
8482;SDS011;4278;42.668;23.312;2023-06-14T11:10:43;13.88;;;8.40;;
8482;SDS011;4278;42.668;23.312;2023-06-14T11:13:13;9.43;;;8.23;;
8482;SDS011;4278;42.668;23.312;2023-06-14T11:15:44;11.65;;;8.75;;
8482;SDS011;4278;42.668;23.312;2023-06-14T11:18:11;12.93;;;8.60;;
8482;SDS011;4278;42.668;23.312;2023-06-14T11:20:41;18.70;;;13.60;;
8482;SDS011;4278;42.668;23.312;2023-06-14T11:23:16;13.98;;;8.15;;
8482;SDS011;4278;42.668;23.312;2023-06-14T11:25:43;21.00;;;8.88;;
8482;SDS011;4278;42.668;23.312;2023-06-14T11:28:15;9.70;;;7.63;;
8482;SDS011;4278;42.668;23.312;2023-06-14T11:30:42;10.15;;;7.88;;
8482;SDS011;4278;42.668;23.312;2023-06-14T11:33:09;9.20;;;7.15;;
8482;SDS011;4278;42.668;23.312;2023-06-14T11:35:37;10.40;;;7.45;;
8482;SDS011;4278;42.668;23.312;2023-06-14T11:38:04;11.77;;;7.97;;
8482;SDS011;4278;42.668;23.312;2023-06-14T11:40:32;10.68;;;7.40;;
8482;SDS011;4278;42.668;23.312;2023-06-14T11:42:59;10.02;;;7.75;;
8482;SDS011;4278;42.668;23.312;2023-06-14T11:45:27;8.25;;;7.25;;
8482;SDS011;4278;42.668;23.312;2023-06-14T11:47:56;13.50;;;9.57;;
8482;SDS011;4278;42.668;23.312;2023-06-14T11:50:24;10.27;;;8.40;;
8482;SDS011;4278;42.668;23.312;2023-06-14T11:52:52;11.70;;;7.47;;
8482;SDS011;4278;42.668;23.312;2023-06-14T11:55:20;11.02;;;6.60;;
8482;SDS011;4278;42.668;23.312;2023-06-14T11:57:48;11.70;;;7.18;;
8482;SDS011;4278;42.668;23.312;2023-06-14T12:00:16;7.18;;;6.45;;
8482;SDS011;4278;42.668;23.312;2023-06-14T12:02:51;8.43;;;6.97;;
8482;SDS011;4278;42.668;23.312;2023-06-14T12:05:20;10.55;;;7.50;;
8482;SDS011;4278;42.668;23.312;2023-06-14T12:07:47;10.52;;;7.78;;
8482;SDS011;4278;42.668;23.312;2023-06-14T12:10:15;10.27;;;7.40;;
8482;SDS011;4278;42.668;23.312;2023-06-14T12:12:43;10.05;;;6.43;;
8482;SDS011;4278;42.668;23.312;2023-06-14T12:15:11;8.23;;;6.82;;
8482;SDS011;4278;42.668;23.312;2023-06-14T12:17:38;8.27;;;6.45;;
8482;SDS011;4278;42.668;23.312;2023-06-14T12:20:07;8.80;;;6.35;;
8482;SDS011;4278;42.668;23.312;2023-06-14T12:22:39;10.35;;;6.18;;
8482;SDS011;4278;42.668;23.312;2023-06-14T12:25:22;7.57;;;6.35;;
8482;SDS011;4278;42.668;23.312;2023-06-14T12:27:52;5.82;;;5.07;;
8482;SDS011;4278;42.668;23.312;2023-06-14T12:30:20;6.88;;;5.60;;
8482;SDS011;4278;42.668;23.312;2023-06-14T12:32:47;8.40;;;5.68;;
8482;SDS011;4278;42.668;23.312;2023-06-14T12:35:16;9.05;;;5.60;;
8482;SDS011;4278;42.668;23.312;2023-06-14T12:37:46;6.65;;;5.70;;
8482;SDS011;4278;42.668;23.312;2023-06-14T12:40:13;9.52;;;5.15;;
8482;SDS011;4278;42.668;23.312;2023-06-14T12:42:40;6.63;;;5.30;;
8482;SDS011;4278;42.668;23.312;2023-06-14T12:45:08;7.47;;;5.32;;
8482;SDS011;4278;42.668;23.312;2023-06-14T12:47:36;7.10;;;5.10;;
8482;SDS011;4278;42.668;23.312;2023-06-14T12:50:04;5.82;;;5.25;;
8482;SDS011;4278;42.668;23.312;2023-06-14T12:52:31;6.53;;;5.32;;
8482;SDS011;4278;42.668;23.312;2023-06-14T12:55:01;6.97;;;5.60;;
8482;SDS011;4278;42.668;23.312;2023-06-14T12:57:29;7.95;;;5.25;;
8482;SDS011;4278;42.668;23.312;2023-06-14T12:59:56;8.20;;;5.60;;
8482;SDS011;4278;42.668;23.312;2023-06-14T13:02:22;7.35;;;5.78;;
8482;SDS011;4278;42.668;23.312;2023-06-14T13:04:52;7.00;;;5.32;;
8482;SDS011;4278;42.668;23.312;2023-06-14T13:07:18;8.77;;;5.75;;
8482;SDS011;4278;42.668;23.312;2023-06-14T13:09:45;7.07;;;5.90;;
8482;SDS011;4278;42.668;23.312;2023-06-14T13:12:12;9.52;;;6.45;;
8482;SDS011;4278;42.668;23.312;2023-06-14T13:14:39;10.38;;;5.80;;
8482;SDS011;4278;42.668;23.312;2023-06-14T13:17:07;13.73;;;6.35;;
8482;SDS011;4278;42.668;23.312;2023-06-14T13:19:35;8.68;;;6.30;;
8482;SDS011;4278;42.668;23.312;2023-06-14T13:22:03;7.65;;;6.53;;
8482;SDS011;4278;42.668;23.312;2023-06-14T13:24:30;7.30;;;6.20;;
8482;SDS011;4278;42.668;23.312;2023-06-14T13:26:57;8.88;;;6.63;;
8482;SDS011;4278;42.668;23.312;2023-06-14T13:29:24;7.78;;;5.88;;
8482;SDS011;4278;42.668;23.312;2023-06-14T13:31:51;9.90;;;6.40;;
8482;SDS011;4278;42.668;23.312;2023-06-14T13:34:18;9.32;;;6.05;;
8482;SDS011;4278;42.668;23.312;2023-06-14T13:36:46;7.55;;;6.03;;
8482;SDS011;4278;42.668;23.312;2023-06-14T13:39:14;10.55;;;5.93;;
8482;SDS011;4278;42.668;23.312;2023-06-14T13:41:41;14.00;;;7.03;;
8482;SDS011;4278;42.668;23.312;2023-06-14T13:44:07;12.60;;;6.75;;
8482;SDS011;4278;42.668;23.312;2023-06-14T13:46:36;8.90;;;6.22;;
8482;SDS011;4278;42.668;23.312;2023-06-14T13:49:03;10.23;;;6.70;;
8482;SDS011;4278;42.668;23.312;2023-06-14T13:51:30;9.05;;;6.60;;
8482;SDS011;4278;42.668;23.312;2023-06-14T13:53:58;9.25;;;6.63;;
8482;SDS011;4278;42.668;23.312;2023-06-14T13:56:26;7.80;;;6.70;;
8482;SDS011;4278;42.668;23.312;2023-06-14T13:58:53;12.50;;;7.70;;
8482;SDS011;4278;42.668;23.312;2023-06-14T14:01:20;9.10;;;6.32;;
8482;SDS011;4278;42.668;23.312;2023-06-14T14:03:47;9.95;;;7.18;;
8482;SDS011;4278;42.668;23.312;2023-06-14T14:06:14;10.02;;;7.10;;
8482;SDS011;4278;42.668;23.312;2023-06-14T14:08:42;10.80;;;6.63;;
8482;SDS011;4278;42.668;23.312;2023-06-14T14:11:09;8.88;;;5.72;;
8482;SDS011;4278;42.668;23.312;2023-06-14T14:13:38;9.60;;;6.60;;
8482;SDS011;4278;42.668;23.312;2023-06-14T14:16:05;7.97;;;6.07;;
8482;SDS011;4278;42.668;23.312;2023-06-14T14:18:32;7.05;;;5.35;;
8482;SDS011;4278;42.668;23.312;2023-06-14T14:21:00;8.23;;;5.22;;
8482;SDS011;4278;42.668;23.312;2023-06-14T14:23:27;8.40;;;5.88;;
8482;SDS011;4278;42.668;23.312;2023-06-14T14:25:54;6.43;;;5.55;;
8482;SDS011;4278;42.668;23.312;2023-06-14T14:28:21;9.98;;;6.18;;
8482;SDS011;4278;42.668;23.312;2023-06-14T14:30:50;5.85;;;4.63;;
8482;SDS011;4278;42.668;23.312;2023-06-14T14:33:16;5.18;;;4.20;;
8482;SDS011;4278;42.668;23.312;2023-06-14T14:35:43;7.55;;;5.10;;
8482;SDS011;4278;42.668;23.312;2023-06-14T14:38:11;6.82;;;4.90;;
8482;SDS011;4278;42.668;23.312;2023-06-14T14:40:38;6.55;;;4.93;;
8482;SDS011;4278;42.668;23.312;2023-06-14T14:43:05;6.07;;;4.47;;
8482;SDS011;4278;42.668;23.312;2023-06-14T14:45:32;8.23;;;5.15;;
8482;SDS011;4278;42.668;23.312;2023-06-14T14:48:01;10.07;;;5.82;;
8482;SDS011;4278;42.668;23.312;2023-06-14T14:50:28;9.90;;;6.05;;
8482;SDS011;4278;42.668;23.312;2023-06-14T14:52:55;7.95;;;5.82;;
8482;SDS011;4278;42.668;23.312;2023-06-14T14:55:22;8.77;;;5.55;;
8482;SDS011;4278;42.668;23.312;2023-06-14T14:57:49;9.90;;;6.43;;
8482;SDS011;4278;42.668;23.312;2023-06-14T15:00:16;8.68;;;6.47;;